sensor_id;sensor_type;location;lat;lon;timestamp;pressure;altitude;pressure_sealevel;temperature
74321;BMP280;62738;45.772;4.804;2023-04-03T00:00:40;100125.59;;;10.06
74321;BMP280;62738;45.772;4.804;2023-04-03T00:03:07;100110.72;;;9.81
74321;BMP280;62738;45.772;4.804;2023-04-03T00:05:34;100124.47;;;10.09
74321;BMP280;62738;45.772;4.804;2023-04-03T00:08:00;100106.75;;;10.05
74321;BMP280;62738;45.772;4.804;2023-04-03T00:10:28;100116.41;;;10.26
74321;BMP280;62738;45.772;4.804;2023-04-03T00:12:55;100109.97;;;10.47
74321;BMP280;62738;45.772;4.804;2023-04-03T00:15:21;100108.31;;;10.59
74321;BMP280;62738;45.772;4.804;2023-04-03T00:17:48;100106.84;;;10.58
74321;BMP280;62738;45.772;4.804;2023-04-03T00:20:15;100105.50;;;10.28
74321;BMP280;62738;45.772;4.804;2023-04-03T00:22:41;100103.50;;;10.37
74321;BMP280;62738;45.772;4.804;2023-04-03T00:25:08;100106.56;;;10.10
74321;BMP280;62738;45.772;4.804;2023-04-03T00:27:39;100106.41;;;10.16
74321;BMP280;62738;45.772;4.804;2023-04-03T00:30:07;100107.47;;;9.98
74321;BMP280;62738;45.772;4.804;2023-04-03T00:32:34;100108.56;;;10.10
74321;BMP280;62738;45.772;4.804;2023-04-03T00:35:00;100105.25;;;9.96
74321;BMP280;62738;45.772;4.804;2023-04-03T00:37:27;100112.78;;;9.88
74321;BMP280;62738;45.772;4.804;2023-04-03T00:39:53;100106.56;;;10.03
74321;BMP280;62738;45.772;4.804;2023-04-03T00:42:20;100111.75;;;10.06
74321;BMP280;62738;45.772;4.804;2023-04-03T00:47:16;100106.19;;;9.99
74321;BMP280;62738;45.772;4.804;2023-04-03T00:49:44;100100.53;;;9.83
74321;BMP280;62738;45.772;4.804;2023-04-03T00:52:14;100091.38;;;9.96
74321;BMP280;62738;45.772;4.804;2023-04-03T00:54:42;100100.09;;;10.08
74321;BMP280;62738;45.772;4.804;2023-04-03T00:57:10;100093.84;;;10.07
74321;BMP280;62738;45.772;4.804;2023-04-03T00:59:46;100087.16;;;10.18
74321;BMP280;62738;45.772;4.804;2023-04-03T01:02:14;100091.25;;;10.17
74321;BMP280;62738;45.772;4.804;2023-04-03T01:04:42;100093.84;;;10.07
74321;BMP280;62738;45.772;4.804;2023-04-03T01:07:12;100083.31;;;10.44
74321;BMP280;62738;45.772;4.804;2023-04-03T01:09:42;100090.91;;;10.36
74321;BMP280;62738;45.772;4.804;2023-04-03T01:14:45;100080.53;;;10.21
74321;BMP280;62738;45.772;4.804;2023-04-03T01:17:43;100073.09;;;10.08
74321;BMP280;62738;45.772;4.804;2023-04-03T01:25:50;100071.56;;;9.92
74321;BMP280;62738;45.772;4.804;2023-04-03T01:28:27;100073.03;;;9.85
74321;BMP280;62738;45.772;4.804;2023-04-03T01:31:02;100071.94;;;9.88
74321;BMP280;62738;45.772;4.804;2023-04-03T01:33:32;100072.53;;;9.95
74321;BMP280;62738;45.772;4.804;2023-04-03T01:35:59;100064.38;;;9.89
74321;BMP280;62738;45.772;4.804;2023-04-03T01:38:26;100057.50;;;9.75
74321;BMP280;62738;45.772;4.804;2023-04-03T01:40:53;100063.03;;;9.75
74321;BMP280;62738;45.772;4.804;2023-04-03T01:43:20;100068.13;;;9.56
74321;BMP280;62738;45.772;4.804;2023-04-03T01:45:46;100064.72;;;9.85
74321;BMP280;62738;45.772;4.804;2023-04-03T01:48:16;100062.69;;;9.86
74321;BMP280;62738;45.772;4.804;2023-04-03T01:50:42;100063.81;;;9.83
74321;BMP280;62738;45.772;4.804;2023-04-03T01:53:09;100064.41;;;9.45
74321;BMP280;62738;45.772;4.804;2023-04-03T01:55:36;100064.53;;;9.76
74321;BMP280;62738;45.772;4.804;2023-04-03T01:58:02;100068.22;;;9.71
74321;BMP280;62738;45.772;4.804;2023-04-03T02:00:29;100065.97;;;9.69
74321;BMP280;62738;45.772;4.804;2023-04-03T02:02:56;100061.53;;;9.66
74321;BMP280;62738;45.772;4.804;2023-04-03T02:05:23;100070.25;;;9.70
74321;BMP280;62738;45.772;4.804;2023-04-03T02:07:49;100072.19;;;9.55
74321;BMP280;62738;45.772;4.804;2023-04-03T02:10:16;100060.00;;;9.58
74321;BMP280;62738;45.772;4.804;2023-04-03T02:12:43;100068.91;;;9.28
74321;BMP280;62738;45.772;4.804;2023-04-03T02:15:09;100074.75;;;9.45
74321;BMP280;62738;45.772;4.804;2023-04-03T02:17:36;100072.88;;;9.47
74321;BMP280;62738;45.772;4.804;2023-04-03T02:20:03;100061.47;;;9.51
74321;BMP280;62738;45.772;4.804;2023-04-03T02:22:30;100063.75;;;9.68
74321;BMP280;62738;45.772;4.804;2023-04-03T02:24:57;100067.69;;;9.36
74321;BMP280;62738;45.772;4.804;2023-04-03T02:27:24;100060.88;;;9.37
74321;BMP280;62738;45.772;4.804;2023-04-03T02:29:50;100059.22;;;9.42
74321;BMP280;62738;45.772;4.804;2023-04-03T02:32:17;100059.00;;;9.40
74321;BMP280;62738;45.772;4.804;2023-04-03T02:34:44;100055.91;;;9.43
74321;BMP280;62738;45.772;4.804;2023-04-03T02:37:11;100063.28;;;9.48
74321;BMP280;62738;45.772;4.804;2023-04-03T02:39:37;100057.09;;;9.63
74321;BMP280;62738;45.772;4.804;2023-04-03T02:42:04;100046.00;;;9.63
74321;BMP280;62738;45.772;4.804;2023-04-03T02:44:31;100043.47;;;9.73
74321;BMP280;62738;45.772;4.804;2023-04-03T02:46:57;100047.72;;;9.74
74321;BMP280;62738;45.772;4.804;2023-04-03T02:49:24;100046.50;;;9.46
74321;BMP280;62738;45.772;4.804;2023-04-03T02:51:51;100038.22;;;9.46
74321;BMP280;62738;45.772;4.804;2023-04-03T02:54:17;100042.63;;;9.57
74321;BMP280;62738;45.772;4.804;2023-04-03T02:56:44;100048.41;;;9.67
74321;BMP280;62738;45.772;4.804;2023-04-03T02:59:10;100052.00;;;9.39
74321;BMP280;62738;45.772;4.804;2023-04-03T03:01:37;100041.56;;;9.60
74321;BMP280;62738;45.772;4.804;2023-04-03T03:04:04;100054.38;;;9.35
74321;BMP280;62738;45.772;4.804;2023-04-03T03:06:31;100047.81;;;9.17
74321;BMP280;62738;45.772;4.804;2023-04-03T03:08:58;100038.97;;;9.55
74321;BMP280;62738;45.772;4.804;2023-04-03T03:11:24;100039.34;;;9.66
74321;BMP280;62738;45.772;4.804;2023-04-03T03:13:51;100042.34;;;9.83
74321;BMP280;62738;45.772;4.804;2023-04-03T03:16:20;100034.16;;;9.55
74321;BMP280;62738;45.772;4.804;2023-04-03T03:18:46;100046.22;;;9.29
74321;BMP280;62738;45.772;4.804;2023-04-03T03:21:13;100054.75;;;9.39
74321;BMP280;62738;45.772;4.804;2023-04-03T03:23:40;100044.88;;;9.59
74321;BMP280;62738;45.772;4.804;2023-04-03T03:26:09;100050.47;;;9.30
74321;BMP280;62738;45.772;4.804;2023-04-03T03:28:38;100050.19;;;9.13
74321;BMP280;62738;45.772;4.804;2023-04-03T03:31:05;100042.53;;;9.27
74321;BMP280;62738;45.772;4.804;2023-04-03T03:33:32;100041.38;;;9.66
74321;BMP280;62738;45.772;4.804;2023-04-03T03:35:59;100039.13;;;9.57
74321;BMP280;62738;45.772;4.804;2023-04-03T03:38:26;100038.69;;;9.73
74321;BMP280;62738;45.772;4.804;2023-04-03T03:40:52;100035.22;;;10.03
74321;BMP280;62738;45.772;4.804;2023-04-03T03:43:19;100031.34;;;10.14
74321;BMP280;62738;45.772;4.804;2023-04-03T03:45:51;100038.19;;;9.98
74321;BMP280;62738;45.772;4.804;2023-04-03T03:48:19;100035.22;;;10.11
74321;BMP280;62738;45.772;4.804;2023-04-03T03:50:47;100034.69;;;9.54
74321;BMP280;62738;45.772;4.804;2023-04-03T03:53:14;100031.25;;;9.68
74321;BMP280;62738;45.772;4.804;2023-04-03T03:55:41;100033.13;;;9.81
74321;BMP280;62738;45.772;4.804;2023-04-03T03:58:08;100027.84;;;9.98
74321;BMP280;62738;45.772;4.804;2023-04-03T04:00:35;100022.50;;;10.23
74321;BMP280;62738;45.772;4.804;2023-04-03T04:03:01;100029.16;;;10.27
74321;BMP280;62738;45.772;4.804;2023-04-03T04:05:28;100028.91;;;9.95
74321;BMP280;62738;45.772;4.804;2023-04-03T04:07:55;100026.69;;;9.94
74321;BMP280;62738;45.772;4.804;2023-04-03T04:10:22;100023.72;;;9.76
74321;BMP280;62738;45.772;4.804;2023-04-03T04:12:48;100021.59;;;9.54
74321;BMP280;62738;45.772;4.804;2023-04-03T04:15:17;100029.38;;;9.56
74321;BMP280;62738;45.772;4.804;2023-04-03T04:17:44;100024.44;;;9.77
74321;BMP280;62738;45.772;4.804;2023-04-03T04:20:11;100024.41;;;9.62
74321;BMP280;62738;45.772;4.804;2023-04-03T04:22:38;100016.41;;;9.50
74321;BMP280;62738;45.772;4.804;2023-04-03T04:25:05;100016.44;;;9.58
74321;BMP280;62738;45.772;4.804;2023-04-03T04:27:32;100013.53;;;9.71
74321;BMP280;62738;45.772;4.804;2023-04-03T04:29:58;100008.72;;;9.64
74321;BMP280;62738;45.772;4.804;2023-04-03T04:32:25;100000.72;;;9.45
74321;BMP280;62738;45.772;4.804;2023-04-03T04:34:52;100012.78;;;9.63
74321;BMP280;62738;45.772;4.804;2023-04-03T04:37:19;99993.47;;;9.35
74321;BMP280;62738;45.772;4.804;2023-04-03T04:39:45;99991.91;;;9.77
74321;BMP280;62738;45.772;4.804;2023-04-03T04:42:12;99993.41;;;9.71
74321;BMP280;62738;45.772;4.804;2023-04-03T04:44:42;99994.13;;;9.64
74321;BMP280;62738;45.772;4.804;2023-04-03T04:47:08;99998.38;;;9.65
74321;BMP280;62738;45.772;4.804;2023-04-03T04:49:35;99995.25;;;9.68
74321;BMP280;62738;45.772;4.804;2023-04-03T04:52:02;100010.13;;;9.42
74321;BMP280;62738;45.772;4.804;2023-04-03T04:54:28;100006.59;;;9.49
74321;BMP280;62738;45.772;4.804;2023-04-03T04:56:55;99998.97;;;9.86
74321;BMP280;62738;45.772;4.804;2023-04-03T04:59:22;99999.31;;;9.75
74321;BMP280;62738;45.772;4.804;2023-04-03T05:01:48;100001.72;;;9.71
74321;BMP280;62738;45.772;4.804;2023-04-03T05:04:15;100000.56;;;9.59
74321;BMP280;62738;45.772;4.804;2023-04-03T05:06:42;100014.91;;;9.49
74321;BMP280;62738;45.772;4.804;2023-04-03T05:09:09;100012.34;;;9.44
74321;BMP280;62738;45.772;4.804;2023-04-03T05:11:36;100008.31;;;9.60
74321;BMP280;62738;45.772;4.804;2023-04-03T05:14:03;100016.84;;;9.77
74321;BMP280;62738;45.772;4.804;2023-04-03T05:16:33;100015.00;;;9.65
74321;BMP280;62738;45.772;4.804;2023-04-03T05:19:00;100010.91;;;9.66
74321;BMP280;62738;45.772;4.804;2023-04-03T05:21:26;100014.25;;;9.64
74321;BMP280;62738;45.772;4.804;2023-04-03T05:23:59;100013.59;;;10.02
74321;BMP280;62738;45.772;4.804;2023-04-03T05:26:30;100019.84;;;9.87
74321;BMP280;62738;45.772;4.804;2023-04-03T05:28:57;100025.06;;;10.06
74321;BMP280;62738;45.772;4.804;2023-04-03T05:31:24;100020.28;;;10.06
74321;BMP280;62738;45.772;4.804;2023-04-03T05:33:51;100016.38;;;10.02
74321;BMP280;62738;45.772;4.804;2023-04-03T05:36:18;100015.25;;;9.97
74321;BMP280;62738;45.772;4.804;2023-04-03T05:38:45;100015.03;;;9.87
74321;BMP280;62738;45.772;4.804;2023-04-03T05:41:13;100003.19;;;9.72
74321;BMP280;62738;45.772;4.804;2023-04-03T05:43:39;100004.84;;;9.75
74321;BMP280;62738;45.772;4.804;2023-04-03T05:46:11;100024.81;;;9.73
74321;BMP280;62738;45.772;4.804;2023-04-03T05:48:38;100029.25;;;9.33
74321;BMP280;62738;45.772;4.804;2023-04-03T05:51:06;100020.06;;;9.38
74321;BMP280;62738;45.772;4.804;2023-04-03T05:53:35;100023.53;;;9.31
74321;BMP280;62738;45.772;4.804;2023-04-03T05:56:05;100015.50;;;9.56
74321;BMP280;62738;45.772;4.804;2023-04-03T05:58:32;100026.59;;;9.56
74321;BMP280;62738;45.772;4.804;2023-04-03T06:00:59;100033.34;;;9.39
74321;BMP280;62738;45.772;4.804;2023-04-03T06:03:26;100033.75;;;9.43
74321;BMP280;62738;45.772;4.804;2023-04-03T06:05:53;100040.91;;;9.39
74321;BMP280;62738;45.772;4.804;2023-04-03T06:08:19;100028.63;;;9.55
74321;BMP280;62738;45.772;4.804;2023-04-03T06:10:46;100033.03;;;9.58
74321;BMP280;62738;45.772;4.804;2023-04-03T06:13:13;100031.34;;;9.47
74321;BMP280;62738;45.772;4.804;2023-04-03T06:15:40;100027.47;;;9.50
74321;BMP280;62738;45.772;4.804;2023-04-03T06:18:06;100034.63;;;9.38
74321;BMP280;62738;45.772;4.804;2023-04-03T06:20:33;100043.13;;;9.40
74321;BMP280;62738;45.772;4.804;2023-04-03T06:23:00;100041.84;;;9.41
74321;BMP280;62738;45.772;4.804;2023-04-03T06:25:26;100048.00;;;9.19
74321;BMP280;62738;45.772;4.804;2023-04-03T06:27:54;100046.84;;;9.07
74321;BMP280;62738;45.772;4.804;2023-04-03T06:30:22;100049.31;;;8.90
74321;BMP280;62738;45.772;4.804;2023-04-03T06:32:48;100052.88;;;8.98
74321;BMP280;62738;45.772;4.804;2023-04-03T06:35:15;100043.88;;;9.05
74321;BMP280;62738;45.772;4.804;2023-04-03T06:37:42;100047.44;;;9.13
74321;BMP280;62738;45.772;4.804;2023-04-03T06:40:15;100048.16;;;9.49
74321;BMP280;62738;45.772;4.804;2023-04-03T06:42:44;100051.81;;;9.37
74321;BMP280;62738;45.772;4.804;2023-04-03T06:45:11;100043.88;;;9.41
74321;BMP280;62738;45.772;4.804;2023-04-03T06:47:38;100051.16;;;9.23
74321;BMP280;62738;45.772;4.804;2023-04-03T06:50:05;100052.19;;;9.48
74321;BMP280;62738;45.772;4.804;2023-04-03T06:52:32;100048.47;;;9.38
74321;BMP280;62738;45.772;4.804;2023-04-03T06:54:59;100059.09;;;9.19
74321;BMP280;62738;45.772;4.804;2023-04-03T06:57:26;100055.53;;;9.11
74321;BMP280;62738;45.772;4.804;2023-04-03T06:59:53;100064.75;;;9.42
74321;BMP280;62738;45.772;4.804;2023-04-03T07:02:19;100057.66;;;9.26
74321;BMP280;62738;45.772;4.804;2023-04-03T07:04:47;100054.66;;;9.16
74321;BMP280;62738;45.772;4.804;2023-04-03T07:07:14;100072.53;;;9.15
74321;BMP280;62738;45.772;4.804;2023-04-03T07:09:41;100063.56;;;9.30
74321;BMP280;62738;45.772;4.804;2023-04-03T07:12:10;100076.81;;;9.16
74321;BMP280;62738;45.772;4.804;2023-04-03T07:14:37;100066.97;;;9.07
74321;BMP280;62738;45.772;4.804;2023-04-03T07:17:04;100066.06;;;9.13
74321;BMP280;62738;45.772;4.804;2023-04-03T07:19:30;100063.72;;;9.24
74321;BMP280;62738;45.772;4.804;2023-04-03T07:21:57;100069.50;;;9.34
74321;BMP280;62738;45.772;4.804;2023-04-03T07:24:24;100070.84;;;9.12
74321;BMP280;62738;45.772;4.804;2023-04-03T07:26:52;100070.53;;;8.95
74321;BMP280;62738;45.772;4.804;2023-04-03T07:29:18;100085.34;;;8.77
74321;BMP280;62738;45.772;4.804;2023-04-03T07:31:46;100080.16;;;8.73
74321;BMP280;62738;45.772;4.804;2023-04-03T07:34:13;100069.84;;;9.02
74321;BMP280;62738;45.772;4.804;2023-04-03T07:36:40;100074.19;;;8.90
74321;BMP280;62738;45.772;4.804;2023-04-03T07:39:07;100071.16;;;9.01
74321;BMP280;62738;45.772;4.804;2023-04-03T07:41:34;100074.53;;;9.07
74321;BMP280;62738;45.772;4.804;2023-04-03T07:44:01;100077.88;;;9.13
74321;BMP280;62738;45.772;4.804;2023-04-03T07:46:28;100090.88;;;9.26
74321;BMP280;62738;45.772;4.804;2023-04-03T07:48:55;100069.94;;;8.89
74321;BMP280;62738;45.772;4.804;2023-04-03T07:51:23;100068.72;;;8.97
74321;BMP280;62738;45.772;4.804;2023-04-03T07:53:51;100067.22;;;9.25
74321;BMP280;62738;45.772;4.804;2023-04-03T07:56:17;100079.56;;;9.16
74321;BMP280;62738;45.772;4.804;2023-04-03T07:58:44;100066.66;;;9.19
74321;BMP280;62738;45.772;4.804;2023-04-03T08:01:11;100068.50;;;9.24
74321;BMP280;62738;45.772;4.804;2023-04-03T08:03:39;100066.97;;;9.43
74321;BMP280;62738;45.772;4.804;2023-04-03T08:06:07;100085.41;;;9.41
74321;BMP280;62738;45.772;4.804;2023-04-03T08:08:40;100075.28;;;9.43
74321;BMP280;62738;45.772;4.804;2023-04-03T08:11:07;100091.75;;;9.21
74321;BMP280;62738;45.772;4.804;2023-04-03T08:13:34;100094.72;;;8.74
74321;BMP280;62738;45.772;4.804;2023-04-03T08:16:12;100092.16;;;8.76
74321;BMP280;62738;45.772;4.804;2023-04-03T08:18:39;100081.00;;;8.89
74321;BMP280;62738;45.772;4.804;2023-04-03T08:21:08;100095.53;;;8.82
74321;BMP280;62738;45.772;4.804;2023-04-03T08:23:35;100093.88;;;8.79
74321;BMP280;62738;45.772;4.804;2023-04-03T08:26:09;100089.06;;;8.79
74321;BMP280;62738;45.772;4.804;2023-04-03T08:28:37;100102.75;;;8.85
74321;BMP280;62738;45.772;4.804;2023-04-03T08:31:11;100090.81;;;8.90
74321;BMP280;62738;45.772;4.804;2023-04-03T08:33:39;100093.53;;;9.10
74321;BMP280;62738;45.772;4.804;2023-04-03T08:36:17;100104.56;;;8.82
74321;BMP280;62738;45.772;4.804;2023-04-03T08:38:44;100095.41;;;8.66
74321;BMP280;62738;45.772;4.804;2023-04-03T08:41:20;100094.19;;;8.75
74321;BMP280;62738;45.772;4.804;2023-04-03T08:43:58;100089.66;;;8.64
74321;BMP280;62738;45.772;4.804;2023-04-03T08:46:40;100098.84;;;8.59
74321;BMP280;62738;45.772;4.804;2023-04-03T08:49:17;100110.31;;;8.63
74321;BMP280;62738;45.772;4.804;2023-04-03T08:51:48;100109.75;;;8.86
74321;BMP280;62738;45.772;4.804;2023-04-03T08:54:30;100095.75;;;8.84
74321;BMP280;62738;45.772;4.804;2023-04-03T08:57:04;100097.63;;;8.89
74321;BMP280;62738;45.772;4.804;2023-04-03T08:59:34;100097.94;;;9.06
74321;BMP280;62738;45.772;4.804;2023-04-03T09:02:04;100092.00;;;9.30
74321;BMP280;62738;45.772;4.804;2023-04-03T09:04:38;100102.06;;;9.20
74321;BMP280;62738;45.772;4.804;2023-04-03T09:07:09;100088.56;;;9.09
74321;BMP280;62738;45.772;4.804;2023-04-03T09:09:42;100096.66;;;8.86
74321;BMP280;62738;45.772;4.804;2023-04-03T09:12:21;100089.19;;;8.74
74321;BMP280;62738;45.772;4.804;2023-04-03T09:22:38;100098.59;;;8.70
74321;BMP280;62738;45.772;4.804;2023-04-03T09:25:20;100083.50;;;9.00
74321;BMP280;62738;45.772;4.804;2023-04-03T09:27:49;100085.78;;;9.37
74321;BMP280;62738;45.772;4.804;2023-04-03T09:30:20;100079.44;;;9.65
74321;BMP280;62738;45.772;4.804;2023-04-03T09:32:50;100086.97;;;9.57
74321;BMP280;62738;45.772;4.804;2023-04-03T09:35:19;100085.88;;;9.24
74321;BMP280;62738;45.772;4.804;2023-04-03T09:40:49;100096.44;;;9.33
74321;BMP280;62738;45.772;4.804;2023-04-03T09:43:30;100086.94;;;9.21
74321;BMP280;62738;45.772;4.804;2023-04-03T09:48:55;100085.56;;;9.79
74321;BMP280;62738;45.772;4.804;2023-04-03T09:51:33;100091.91;;;9.43
74321;BMP280;62738;45.772;4.804;2023-04-03T09:54:24;100081.22;;;9.19
74321;BMP280;62738;45.772;4.804;2023-04-03T09:56:53;100095.06;;;8.91
74321;BMP280;62738;45.772;4.804;2023-04-03T09:59:22;100065.34;;;9.20
74321;BMP280;62738;45.772;4.804;2023-04-03T10:02:04;100094.84;;;9.38
74321;BMP280;62738;45.772;4.804;2023-04-03T10:04:44;100073.44;;;9.10
74321;BMP280;62738;45.772;4.804;2023-04-03T10:07:33;100085.78;;;9.09
74321;BMP280;62738;45.772;4.804;2023-04-03T10:10:16;100095.59;;;9.10
74321;BMP280;62738;45.772;4.804;2023-04-03T10:12:46;100077.56;;;8.96
74321;BMP280;62738;45.772;4.804;2023-04-03T10:15:17;100081.22;;;9.19
74321;BMP280;62738;45.772;4.804;2023-04-03T10:17:57;100066.81;;;9.13
74321;BMP280;62738;45.772;4.804;2023-04-03T10:20:43;100081.22;;;9.19
74321;BMP280;62738;45.772;4.804;2023-04-03T10:26:32;100051.25;;;9.38
74321;BMP280;62738;45.772;4.804;2023-04-03T10:29:26;100051.41;;;9.33
74321;BMP280;62738;45.772;4.804;2023-04-03T10:34:55;100049.75;;;9.73
74321;BMP280;62738;45.772;4.804;2023-04-03T10:37:39;100041.69;;;10.13
74321;BMP280;62738;45.772;4.804;2023-04-03T10:42:56;100030.06;;;10.22
74321;BMP280;62738;45.772;4.804;2023-04-03T10:45:44;100030.81;;;10.00
74321;BMP280;62738;45.772;4.804;2023-04-03T10:48:52;100026.03;;;10.31
74321;BMP280;62738;45.772;4.804;2023-04-03T10:51:29;100033.41;;;10.74
74321;BMP280;62738;45.772;4.804;2023-04-03T10:54:07;100029.31;;;10.90
74321;BMP280;62738;45.772;4.804;2023-04-03T10:56:39;100020.09;;;10.35
74321;BMP280;62738;45.772;4.804;2023-04-03T10:59:36;100018.06;;;10.27
74321;BMP280;62738;45.772;4.804;2023-04-03T11:04:43;100022.41;;;9.77
74321;BMP280;62738;45.772;4.804;2023-04-03T11:07:20;100009.53;;;9.95
74321;BMP280;62738;45.772;4.804;2023-04-03T11:09:52;100008.75;;;9.79
74321;BMP280;62738;45.772;4.804;2023-04-03T11:15:03;100004.84;;;9.75
74321;BMP280;62738;45.772;4.804;2023-04-03T11:17:39;100013.00;;;9.73
74321;BMP280;62738;45.772;4.804;2023-04-03T11:20:17;99998.69;;;9.46
74321;BMP280;62738;45.772;4.804;2023-04-03T11:22:50;100024.44;;;9.77
74321;BMP280;62738;45.772;4.804;2023-04-03T11:25:21;100020.03;;;9.74
74321;BMP280;62738;45.772;4.804;2023-04-03T11:27:55;100005.78;;;9.85
74321;BMP280;62738;45.772;4.804;2023-04-03T11:30:31;100005.97;;;9.72
74321;BMP280;62738;45.772;4.804;2023-04-03T11:35:38;99991.41;;;10.09
74321;BMP280;62738;45.772;4.804;2023-04-03T11:38:16;99994.38;;;9.96
74321;BMP280;62738;45.772;4.804;2023-04-03T11:40:44;99988.81;;;10.11
74321;BMP280;62738;45.772;4.804;2023-04-03T11:43:22;99971.84;;;10.38
74321;BMP280;62738;45.772;4.804;2023-04-03T11:45:55;99989.59;;;10.65
74321;BMP280;62738;45.772;4.804;2023-04-03T11:50:55;99982.28;;;10.92
74321;BMP280;62738;45.772;4.804;2023-04-03T11:53:34;99964.56;;;10.80
74321;BMP280;62738;45.772;4.804;2023-04-03T11:56:04;99989.50;;;10.95
74321;BMP280;62738;45.772;4.804;2023-04-03T11:58:33;99994.94;;;10.48
74321;BMP280;62738;45.772;4.804;2023-04-03T12:16:41;99973.69;;;10.65
74321;BMP280;62738;45.772;4.804;2023-04-03T12:40:28;99940.19;;;11.19
74321;BMP280;62738;45.772;4.804;2023-04-03T12:45:48;99944.50;;;11.69
74321;BMP280;62738;45.772;4.804;2023-04-03T12:48:22;99945.41;;;11.39
74321;BMP280;62738;45.772;4.804;2023-04-03T12:50:51;99928.19;;;11.41
74321;BMP280;62738;45.772;4.804;2023-04-03T12:53:21;99922.88;;;11.60
74321;BMP280;62738;45.772;4.804;2023-04-03T12:55:56;99922.25;;;11.44
74321;BMP280;62738;45.772;4.804;2023-04-03T12:58:25;99922.34;;;11.86
74321;BMP280;62738;45.772;4.804;2023-04-03T13:01:23;99920.91;;;11.53
74321;BMP280;62738;45.772;4.804;2023-04-03T13:03:55;99912.19;;;11.57
74321;BMP280;62738;45.772;4.804;2023-04-03T13:06:43;99917.13;;;11.90
74321;BMP280;62738;45.772;4.804;2023-04-03T13:09:36;99914.09;;;11.96
74321;BMP280;62738;45.772;4.804;2023-04-03T13:12:13;99921.69;;;11.71
74321;BMP280;62738;45.772;4.804;2023-04-03T13:14:48;99921.16;;;11.40
74321;BMP280;62738;45.772;4.804;2023-04-03T13:17:18;99913.19;;;11.69
74321;BMP280;62738;45.772;4.804;2023-04-03T13:19:45;99903.31;;;11.75
74321;BMP280;62738;45.772;4.804;2023-04-03T13:22:33;99916.44;;;11.82
74321;BMP280;62738;45.772;4.804;2023-04-03T13:25:05;99902.47;;;11.90
74321;BMP280;62738;45.772;4.804;2023-04-03T13:27:33;99913.56;;;11.40
74321;BMP280;62738;45.772;4.804;2023-04-03T13:30:01;99910.22;;;11.91
74321;BMP280;62738;45.772;4.804;2023-04-03T13:32:30;99906.41;;;11.87
74321;BMP280;62738;45.772;4.804;2023-04-03T13:34:58;99898.75;;;12.12
74321;BMP280;62738;45.772;4.804;2023-04-03T13:37:37;99906.41;;;12.04
74321;BMP280;62738;45.772;4.804;2023-04-03T13:40:11;99887.47;;;12.27
74321;BMP280;62738;45.772;4.804;2023-04-03T13:42:40;99881.25;;;11.77
74321;BMP280;62738;45.772;4.804;2023-04-03T13:45:28;99887.31;;;11.83
74321;BMP280;62738;45.772;4.804;2023-04-03T13:48:10;99890.81;;;12.09
74321;BMP280;62738;45.772;4.804;2023-04-03T13:51:37;99882.94;;;11.98
74321;BMP280;62738;45.772;4.804;2023-04-03T13:59:18;99877.50;;;11.82
74321;BMP280;62738;45.772;4.804;2023-04-03T14:01:50;99873.34;;;11.91
74321;BMP280;62738;45.772;4.804;2023-04-03T14:04:20;99865.88;;;12.18
74321;BMP280;62738;45.772;4.804;2023-04-03T14:06:48;99883.59;;;11.88
74321;BMP280;62738;45.772;4.804;2023-04-03T14:09:16;99868.34;;;11.47
74321;BMP280;62738;45.772;4.804;2023-04-03T14:11:43;99884.78;;;11.78
74321;BMP280;62738;45.772;4.804;2023-04-03T14:14:15;99875.00;;;11.52
74321;BMP280;62738;45.772;4.804;2023-04-03T14:16:45;99868.66;;;11.76
74321;BMP280;62738;45.772;4.804;2023-04-03T14:19:32;99872.91;;;11.77
74321;BMP280;62738;45.772;4.804;2023-04-03T14:22:00;99866.19;;;11.88
74321;BMP280;62738;45.772;4.804;2023-04-03T14:24:27;99859.66;;;12.27
74321;BMP280;62738;45.772;4.804;2023-04-03T14:26:54;99872.22;;;11.94
74321;BMP280;62738;45.772;4.804;2023-04-03T14:29:22;99859.09;;;11.70
74321;BMP280;62738;45.772;4.804;2023-04-03T14:31:49;99881.25;;;11.77
74321;BMP280;62738;45.772;4.804;2023-04-03T14:34:25;99872.75;;;11.75
74321;BMP280;62738;45.772;4.804;2023-04-03T14:36:52;99886.38;;;11.31
74321;BMP280;62738;45.772;4.804;2023-04-03T14:39:19;99874.91;;;11.84
74321;BMP280;62738;45.772;4.804;2023-04-03T14:41:46;99859.88;;;11.38
74321;BMP280;62738;45.772;4.804;2023-04-03T14:44:13;99855.97;;;11.41
74321;BMP280;62738;45.772;4.804;2023-04-03T14:46:42;99858.38;;;11.44
74321;BMP280;62738;45.772;4.804;2023-04-03T14:49:23;99846.88;;;11.16
74321;BMP280;62738;45.772;4.804;2023-04-03T14:51:51;99849.44;;;11.46
74321;BMP280;62738;45.772;4.804;2023-04-03T14:54:21;99847.78;;;11.50
74321;BMP280;62738;45.772;4.804;2023-04-03T14:56:53;99855.19;;;11.48
74321;BMP280;62738;45.772;4.804;2023-04-03T14:59:22;99833.31;;;11.52
74321;BMP280;62738;45.772;4.804;2023-04-03T15:01:48;99851.25;;;11.59
74321;BMP280;62738;45.772;4.804;2023-04-03T15:04:18;99865.78;;;11.09
74321;BMP280;62738;45.772;4.804;2023-04-03T15:06:47;99872.38;;;11.29
74321;BMP280;62738;45.772;4.804;2023-04-03T15:09:23;99852.44;;;11.16
74321;BMP280;62738;45.772;4.804;2023-04-03T15:11:51;99856.34;;;11.37
74321;BMP280;62738;45.772;4.804;2023-04-03T15:14:18;99856.69;;;11.17
74321;BMP280;62738;45.772;4.804;2023-04-03T15:17:05;99841.28;;;11.23
74321;BMP280;62738;45.772;4.804;2023-04-03T15:19:36;99885.97;;;11.42
74321;BMP280;62738;45.772;4.804;2023-04-03T15:22:04;99842.94;;;11.26
74321;BMP280;62738;45.772;4.804;2023-04-03T15:24:30;99836.00;;;11.35
74321;BMP280;62738;45.772;4.804;2023-04-03T15:26:57;99855.97;;;11.41
74321;BMP280;62738;45.772;4.804;2023-04-03T15:29:23;99843.00;;;11.43
74321;BMP280;62738;45.772;4.804;2023-04-03T15:31:50;99837.50;;;11.36
74321;BMP280;62738;45.772;4.804;2023-04-03T15:34:20;99846.03;;;11.30
74321;BMP280;62738;45.772;4.804;2023-04-03T15:36:49;99848.81;;;11.05
74321;BMP280;62738;45.772;4.804;2023-04-03T15:39:16;99838.44;;;11.06
74321;BMP280;62738;45.772;4.804;2023-04-03T15:41:43;99846.84;;;10.91
74321;BMP280;62738;45.772;4.804;2023-04-03T15:44:11;99827.47;;;10.83
74321;BMP280;62738;45.772;4.804;2023-04-03T15:46:38;99834.47;;;10.84
74321;BMP280;62738;45.772;4.804;2023-04-03T15:49:05;99834.66;;;10.86
74321;BMP280;62738;45.772;4.804;2023-04-03T15:51:32;99834.38;;;10.99